Time;durP1;ratioP1;P1;durP2;ratioP2;P2;SDS_P1;SDS_P2;PMS_P1;PMS_P2;Temp;Humidity;BMP_temperature;BMP_pressure;BME280_temperature;BME280_humidity;BME280_pressure;Samples;Min_cycle;Max_cycle;Signal;HPM_P1;HPM_P2
2022/06/25 03:52:16;;;;;;;10.30;4.57;;;15.20;99.90;;;15.26;100.00;100712.38;1428709;22;22578;-79
2022/06/25 03:55:06;;;;;;;17.15;4.03;;;15.20;99.90;;;15.25;100.00;100717.69;5029432;28;20230;-80
2022/06/25 03:57:56;;;;;;;11.70;2.72;;;15.20;99.90;;;15.29;100.00;100725.66;5029426;28;20218;-80
2022/06/25 04:00:49;;;;;;;19.00;4.47;;;15.20;99.90;;;15.20;100.00;100725.72;5020810;28;20223;-80
2022/06/25 04:03:37;;;;;;;13.15;3.40;;;15.20;99.90;;;15.20;100.00;100735.50;5043207;28;20210;-79
2022/06/25 04:06:28;;;;;;;27.77;5.88;;;15.20;99.90;;;15.25;100.00;100753.22;5028296;28;20206;-79
2022/06/25 04:09:21;;;;;;;16.90;3.90;;;15.20;99.90;;;15.31;100.00;100763.84;5037903;28;20214;-81
2022/06/25 04:12:09;;;;;;;14.30;3.22;;;15.30;99.90;;;15.36;100.00;100767.38;5030242;28;20239;-80
2022/06/25 04:15:01;;;;;;;16.60;3.78;;;15.30;99.90;;;15.37;100.00;100766.47;5020268;28;20227;-79
2022/06/25 04:17:49;;;;;;;13.70;3.20;;;15.30;99.90;;;15.44;100.00;100770.00;5007359;28;20207;-79
2022/06/25 04:20:38;;;;;;;20.88;4.65;;;15.30;99.90;;;15.47;100.00;100777.09;5002134;28;20210;-80
2022/06/25 04:23:27;;;;;;;22.75;5.13;;;15.40;99.90;;;15.52;100.00;100783.28;5049063;28;20206;-80
2022/06/25 04:26:16;;;;;;;24.20;5.38;;;15.40;99.90;;;15.57;100.00;100792.16;5050209;28;20565;-78
2022/06/25 04:29:04;;;;;;;14.38;3.55;;;15.50;99.90;;;15.57;100.00;100781.47;5031732;28;20218;-79
2022/06/25 13:44:04;;;;;;;22.80;12.68;;;33.30;99.90;;;31.85;66.51;99409.78;5027826;28;20245;-76
2022/06/25 13:46:52;;;;;;;143.43;133.43;;;33.90;99.90;;;31.41;66.66;99335.59;5028722;28;20597;-75
2022/06/25 13:49:41;;;;;;;164.82;153.48;;;34.20;99.90;;;31.56;66.13;99311.41;5019710;28;20210;-74
2022/06/25 13:52:30;;;;;;;36.67;33.38;;;34.20;99.90;;;30.52;62.70;99141.88;5026721;28;20207;-74
2022/06/25 13:55:18;;;;;;;21.27;6.88;;;33.50;98.70;;;30.79;64.30;99184.81;5030855;28;20246;-74
2022/06/25 13:58:06;;;;;;;16.40;5.57;;;33.10;99.90;;;30.74;64.11;99156.25;5029131;28;20209;-74
2022/06/25 14:00:57;;;;;;;24.25;15.30;;;33.10;99.60;;;31.20;64.37;99219.13;5030340;28;20582;-74
2022/06/25 14:03:46;;;;;;;16.30;7.70;;;32.90;99.90;;;30.85;65.03;99159.69;5016284;28;20210;-75
2022/06/25 14:06:39;;;;;;;19.65;4.10;;;32.90;99.90;;;31.05;64.48;99165.97;5023159;28;20219;-74
2022/06/25 14:09:27;;;;;;;13.00;2.70;;;32.90;99.90;;;31.19;64.29;99165.53;5031234;28;20230;-75
2022/06/25 14:12:22;;;;;;;10.70;2.25;;;33.20;99.90;;;31.34;64.05;99163.22;5025005;28;20549;-75
2022/06/25 14:15:10;;;;;;;13.98;2.90;;;33.20;99.90;;;31.98;66.75;99258.06;5028833;28;20230;-75
2022/06/25 14:18:01;;;;;;;20.02;3.92;;;33.40;99.90;;;31.91;66.48;99221.41;5020881;28;20202;-75
2022/06/25 14:20:49;;;;;;;104.57;97.47;;;33.50;99.90;;;32.62;68.24;99300.97;5026347;28;20213;-74
2022/06/25 14:23:37;;;;;;;81.80;75.10;;;33.70;99.10;;;31.10;66.52;99081.72;5005745;28;20199;-74
2022/06/25 14:26:26;;;;;;;16.38;4.55;;;33.70;99.40;;;31.87;68.49;99208.19;5026714;28;20210;-74
2022/06/25 14:29:14;;;;;;;18.83;4.72;;;33.20;99.90;;;31.98;67.23;99188.84;5025214;28;20207;-75
2022/06/25 14:32:03;;;;;;;25.65;22.35;;;33.30;99.90;;;31.59;64.52;99082.44;5021601;28;20210;-76
2022/06/25 14:34:51;;;;;;;44.10;40.08;;;33.70;99.90;;;32.03;64.52;99126.34;5012090;28;20234;-76
2022/06/25 14:43:54;;;;;;;59.10;54.72;;;33.80;97.70;;;31.80;63.19;99031.09;5030346;28;20226;-75
2022/06/25 14:46:42;;;;;;;25.95;20.70;;;33.90;99.60;;;30.09;63.82;98882.44;5024734;28;20217;-75
2022/06/25 14:49:30;;;;;;;19.77;17.95;;;32.70;97.50;;;30.92;64.32;98995.31;5026193;28;20207;-75
2022/06/25 14:52:18;;;;;;;101.50;94.88;;;32.00;99.90;;;32.10;65.01;99105.56;5023726;28;20223;-75
2022/06/25 14:55:08;;;;;;;101.88;95.22;;;32.90;99.90;;;32.45;65.72;99141.19;5029156;28;20242;-74
2022/06/25 14:57:56;;;;;;;95.88;89.32;;;34.10;99.90;;;32.86;66.66;99171.69;5025030;28;20201;-75
2022/06/25 15:00:44;;;;;;;116.65;109.07;;;34.30;99.90;;;31.91;64.19;99021.81;5029227;28;20219;-74
2022/06/25 15:03:33;;;;;;;66.72;62.42;;;34.10;98.30;;;31.48;64.79;98954.22;5027688;28;20206;-74
2022/06/25 15:06:22;;;;;;;137.57;129.13;;;33.60;99.20;;;33.10;63.09;99108.03;5025470;28;20210;-74
2022/06/25 15:09:10;;;;;;;111.43;104.40;;;34.00;99.90;;;32.53;61.48;99003.59;5024679;28;20203;-74
2022/06/25 15:11:58;;;;;;;55.90;52.08;;;34.30;98.70;;;30.54;64.56;98826.13;5029686;28;20213;-74
2022/06/25 15:14:46;;;;;;;44.85;41.58;;;33.70;96.90;;;31.33;63.56;98937.50;5014636;28;20226;-74
2022/06/25 15:17:36;;;;;;;61.28;57.45;;;32.60;98.30;;;31.63;63.43;98938.16;5027869;28;20194;-74
2022/06/25 15:20:25;;;;;;;67.97;63.72;;;33.20;99.20;;;31.71;62.86;98911.78;5018020;28;20210;-75
2022/06/25 15:23:13;;;;;;;47.40;44.75;;;33.30;97.90;;;31.79;64.51;98922.78;5024036;28;20202;-75
2022/06/25 15:26:02;;;;;;;33.20;29.38;;;33.10;98.50;;;32.01;64.48;98931.50;5029535;28;20207;-74
2022/06/25 15:28:50;;;;;;;64.82;60.72;;;33.10;99.10;;;32.73;68.93;99065.31;5025692;28;20219;-74
2022/06/25 15:31:39;;;;;;;142.80;134.20;;;33.30;99.90;;;33.09;60.71;98970.22;5028135;28;20213;-74
2022/06/25 15:34:28;;;;;;;421.83;394.40;;;35.60;98.00;;;33.61;61.11;98993.88;5025345;28;20257;-75
2022/06/25 15:37:16;;;;;;;359.90;337.13;;;36.30;93.00;;;33.11;59.27;98876.91;5018245;28;20217;-75
2022/06/25 15:40:06;;;;;;;188.43;176.48;;;36.30;93.20;;;33.08;60.40;98889.06;5024602;28;20198;-74
2022/06/25 15:42:54;;;;;;;75.43;70.55;;;36.50;93.70;;;33.21;61.27;98902.28;5024041;28;20686;-75
2022/06/25 15:45:42;;;;;;;291.75;272.77;;;36.40;94.80;;;33.85;60.48;98957.47;5009208;28;20233;-74
2022/06/25 15:48:31;;;;;;;499.23;466.02;;;;;;;32.55;58.88;98752.50;5029055;28;20226;-73
2022/06/25 15:51:19;;;;;;;310.75;290.73;;;35.30;95.30;;;33.20;64.06;98957.25;5029267;28;20214;-75
2022/06/25 15:54:07;;;;;;;178.25;166.90;;;35.50;95.70;;;31.85;61.75;98770.94;5030557;28;20249;-74
2022/06/25 15:56:56;;;;;;;159.18;148.90;;;34.90;93.10;;;31.62;63.97;98803.38;5029483;28;20235;-75
2022/06/25 15:59:44;;;;;;;133.00;124.88;;;34.60;94.20;;;31.31;64.18;98786.56;4997204;28;20215;-74
2022/06/25 16:02:33;;;;;;;202.45;189.80;;;34.60;94.60;;;31.32;63.72;98795.63;5029597;28;20210;-75
2022/06/25 16:05:22;;;;;;;194.13;181.98;;;34.60;94.60;;;30.96;65.68;98816.56;5028689;28;20226;-74
2022/06/25 16:08:12;;;;;;;178.98;168.07;;;34.00;96.60;;;31.07;66.71;98862.75;5028588;28;20198;-75
2022/06/25 16:11:30;;;;;;;244.48;229.15;;;34.00;96.50;;;30.69;65.94;98818.31;5030107;28;20288;-74
2022/06/25 16:14:12;;;;;;;181.60;170.10;;;33.80;95.20;;;30.72;64.40;98808.97;5029182;28;20223;-73
2022/06/25 16:17:01;;;;;;;131.95;124.45;;;33.90;94.90;;;31.49;65.11;98890.38;5019014;28;20234;-74
2022/06/25 16:19:49;;;;;;;201.35;188.93;;;33.20;96.20;;;31.88;65.32;98901.84;5028565;28;20226;-74
2022/06/25 16:22:39;;;;;;;294.90;275.77;;;32.70;97.00;;;31.80;65.62;98897.16;5029091;28;20206;-75
2022/06/25 16:25:27;;;;;;;147.98;138.43;;;33.50;95.30;;;32.02;62.71;98852.03;5024602;28;20725;-75
2022/06/25 16:28:15;;;;;;;266.48;250.43;;;34.10;97.40;;;32.66;64.30;98907.34;5016908;28;20203;-74
2022/06/25 16:31:07;;;;;;;277.52;260.33;;;33.90;95.40;;;33.02;62.51;98897.94;5025467;28;20221;-74
2022/06/25 16:33:55;;;;;;;391.92;367.15;;;34.40;93.90;;;32.45;63.91;98822.91;5028608;28;20233;-74
2022/06/25 16:36:43;;;;;;;265.10;248.27;;;34.40;94.80;;;33.36;62.42;98892.41;5026657;28;20234;-74
2022/06/25 16:39:32;;;;;;;329.23;308.15;;;35.00;94.00;;;32.77;63.39;98811.28;5027444;28;20486;-74
2022/06/25 16:42:20;;;;;;;158.02;147.82;;;35.00;94.40;;;32.79;62.37;98808.38;5022443;28;20214;-74
2022/06/25 16:45:09;;;;;;;272.05;254.18;;;35.20;95.90;;;33.44;62.11;98858.69;5022079;28;20242;-75
2022/06/25 16:47:57;;;;;;;78.30;73.40;;;35.30;95.70;;;32.08;63.20;98733.81;5027049;28;20210;-74
2022/06/25 16:50:45;;;;;;;43.45;40.35;;;34.50;94.90;;;32.79;64.10;98830.28;5027789;28;20210;-74
2022/06/25 16:53:35;;;;;;;22.02;19.95;;;34.50;93.20;;;31.75;63.31;98693.69;5027505;28;20213;-75
2022/06/25 16:56:26;;;;;;;35.35;32.63;;;34.40;93.60;;;32.49;64.86;98816.09;5017950;28;20226;-73
2022/06/25 16:59:14;;;;;;;44.03;40.33;;;34.00;95.40;;;32.29;63.21;98760.78;5028128;28;20210;-75
2022/06/25 17:02:03;;;;;;;45.75;30.40;;;34.20;94.80;;;30.69;66.21;98681.88;5026916;28;20562;-75
2022/06/25 17:04:51;;;;;;;47.47;44.30;;;;;;;32.02;65.32;98826.59;5031750;28;20225;-74
2022/06/25 17:07:40;;;;;;;50.10;45.92;;;33.90;96.30;;;31.25;66.35;98751.72;5027166;28;20237;-74
2022/06/25 17:10:28;;;;;;;99.70;93.70;;;34.00;95.60;;;30.40;67.66;98725.72;5031536;28;20217;-75
2022/06/25 17:13:16;;;;;;;209.68;195.13;;;33.50;97.30;;;31.05;67.47;98838.31;5027667;28;20210;-75
2022/06/25 17:16:14;;;;;;;93.65;86.95;;;33.50;97.60;;;31.23;67.72;98843.00;5031146;28;20229;-75
2022/06/25 17:19:03;;;;;;;122.18;114.28;;;34.00;97.60;;;30.44;67.56;98743.50;5031490;28;20210;-75
2022/06/25 17:21:51;;;;;;;270.42;253.32;;;34.00;95.90;;;31.25;66.37;98830.03;5026524;28;20202;-75
2022/06/25 17:24:39;;;;;;;201.50;187.15;;;34.30;96.20;;;30.85;69.03;98810.31;5026559;28;20732;-77
2022/06/25 17:27:27;;;;;;;143.23;133.45;;;;;;;32.13;66.49;98905.63;5029095;28;20195;-74
2022/06/25 17:30:15;;;;;;;61.38;57.78;;;34.40;96.50;;;31.12;67.97;98798.47;5026395;28;20198;-75
2022/06/25 17:33:04;;;;;;;54.53;50.45;;;34.40;96.40;;;30.79;68.86;98791.81;5010987;28;20222;-74
2022/06/25 17:35:52;;;;;;;89.00;82.22;;;34.30;96.40;;;31.79;66.61;98870.00;5019551;28;20225;-76
2022/06/25 17:38:41;;;;;;;97.18;89.93;;;34.30;96.10;;;30.74;65.44;98731.38;5011523;28;20217;-75
2022/06/25 17:41:29;;;;;;;63.13;59.00;;;33.40;94.70;;;30.02;67.97;98721.34;5030732;28;20222;-76
2022/06/25 17:44:18;;;;;;;44.78;41.85;;;33.40;95.00;;;29.79;71.31;98775.28;5023906;28;20248;-76
2022/06/25 17:47:06;;;;;;;47.28;44.08;;;32.80;97.20;;;29.71;68.69;98761.56;5030245;28;20211;-76
2022/06/25 17:49:55;;;;;;;71.32;66.57;;;32.50;96.90;;;30.10;70.49;98825.03;5024318;28;20207;-75
2022/06/25 17:52:43;;;;;;;31.77;28.73;;;32.30;98.00;;;30.03;68.74;98807.56;5028760;28;20571;-76
2022/06/25 17:55:39;;;;;;;34.90;31.90;;;32.10;97.90;;;30.09;71.00;98847.84;5028895;28;20242;-77
2022/06/25 17:58:27;;;;;;;248.18;231.40;;;31.90;98.60;;;29.35;70.99;98795.84;5026723;28;20211;-73
2022/06/25 18:01:16;;;;;;;91.07;84.22;;;31.90;98.80;;;29.27;71.42;98809.31;5025789;28;20673;-77
2022/06/25 18:04:04;;;;;;;134.48;126.20;;;31.70;98.80;;;29.63;72.96;98871.25;5023768;28;20223;-77
2022/06/25 18:06:52;;;;;;;50.78;47.08;;;31.60;99.60;;;29.71;72.27;98886.00;5023407;28;20210;-77
2022/06/25 18:09:42;;;;;;;36.42;32.63;;;31.70;99.90;;;29.87;71.70;98881.69;5028131;28;20230;-76
2022/06/25 18:12:32;;;;;;;25.55;22.67;;;31.70;99.90;;;29.26;74.72;98862.06;5026531;28;20202;-76
2022/06/25 18:15:21;;;;;;;25.55;23.70;;;31.60;99.90;;;29.35;74.56;98901.19;5030558;28;20224;-76
2022/06/25 18:18:09;;;;;;;7.90;5.72;;;31.40;99.90;;;28.62;76.96;98885.09;5011064;28;20242;-77
2022/06/25 18:20:57;;;;;;;12.98;6.10;;;30.80;99.90;;;28.77;74.76;98901.03;5027852;28;20199;-75
2022/06/25 18:23:46;;;;;;;14.60;3.38;;;31.20;99.90;;;27.88;75.11;98838.22;5027567;28;20195;-75
2022/06/25 18:26:34;;;;;;;11.35;2.67;;;30.10;99.90;;;27.89;76.28;98872.53;5026166;28;20203;-76
2022/06/25 18:29:22;;;;;;;9.18;2.33;;;29.90;99.90;;;28.28;77.57;98936.16;5030806;28;20217;-75
2022/06/25 18:32:12;;;;;;;12.93;3.53;;;29.70;99.90;;;28.04;78.74;98941.84;5026305;28;20223;-75
2022/06/25 18:35:00;;;;;;;16.00;3.67;;;29.70;99.90;;;28.06;80.69;98963.44;5004418;28;20233;-74
2022/06/25 18:37:48;;;;;;;7.57;3.10;;;29.60;99.90;;;27.78;79.70;98945.94;5020310;28;20233;-74
2022/06/25 18:40:37;;;;;;;17.90;13.32;;;29.50;99.90;;;28.11;81.56;99001.09;5009976;28;20207;-74
2022/06/25 18:43:28;;;;;;;23.20;20.77;;;29.60;99.90;;;28.10;81.86;99027.41;5030441;28;20215;-76
2022/06/25 18:46:17;;;;;;;23.02;20.90;;;29.40;99.90;;;28.10;79.51;99004.81;5027146;28;20591;-76
2022/06/25 18:49:06;;;;;;;15.65;12.85;;;29.40;99.90;;;27.91;80.94;99008.25;5003696;28;20206;-76
2022/06/25 18:51:54;;;;;;;14.52;10.77;;;29.30;99.90;;;27.82;80.15;99007.16;5005535;28;20576;-76
2022/06/25 18:54:42;;;;;;;14.23;11.73;;;29.20;99.90;;;27.75;81.40;99026.84;5015396;28;20253;-77
2022/06/25 18:57:30;;;;;;;21.55;19.98;;;29.10;99.90;;;27.54;84.94;99053.91;5030282;28;20222;-78
2022/06/25 19:00:19;;;;;;;18.60;14.63;;;28.80;99.90;;;27.24;85.98;99068.09;5025146;28;20198;-76
2022/06/25 19:03:07;;;;;;;25.90;24.02;;;28.60;99.90;;;27.13;87.83;99093.41;5024004;28;20214;-76
2022/06/25 19:05:56;;;;;;;38.30;23.80;;;28.60;99.90;;;27.06;88.69;99116.56;5023713;28;20237;-76
2022/06/25 19:08:44;;;;;;;26.98;18.77;;;28.50;99.90;;;26.91;88.82;99134.91;5012034;28;20214;-76
2022/06/25 19:11:32;;;;;;;20.38;18.17;;;28.30;99.90;;;26.98;88.99;99166.03;5019787;28;20210;-76
2022/06/25 19:14:21;;;;;;;19.25;12.27;;;28.10;99.90;;;26.83;89.93;99164.47;5029688;28;20238;-76
2022/06/25 19:17:09;;;;;;;16.08;12.57;;;28.00;99.90;;;26.54;91.06;99164.03;5027939;28;20238;-76
2022/06/25 19:19:58;;;;;;;17.60;7.95;;;27.80;99.90;;;26.58;89.79;99175.50;5017736;28;20674;-76
2022/06/25 19:22:46;;;;;;;13.88;6.10;;;27.60;99.90;;;26.62;89.77;99204.09;5012136;28;20209;-76
2022/06/25 19:25:34;;;;;;;17.48;5.97;;;27.50;99.90;;;26.03;90.92;99172.38;5027119;28;20230;-76
2022/06/25 19:28:22;;;;;;;12.82;4.45;;;27.30;99.90;;;25.49;98.39;99231.38;5025292;28;20211;-76
2022/06/25 19:31:12;;;;;;;11.70;6.22;;;27.10;99.90;;;25.51;99.55;99275.44;5024734;28;20203;-76
2022/06/25 19:34:00;;;;;;;13.82;5.25;;;26.90;99.90;;;25.51;100.00;99302.50;5030012;28;20234;-76
2022/06/25 19:36:49;;;;;;;15.90;5.18;;;26.70;99.90;;;25.34;100.00;99319.06;5030143;28;20218;-75
2022/06/25 19:39:37;;;;;;;14.65;5.97;;;26.50;99.90;;;25.10;100.00;99357.66;5024386;28;20202;-75
2022/06/25 19:42:25;;;;;;;14.48;6.13;;;26.40;99.90;;;24.94;100.00;99343.38;5031177;28;20241;-76
2022/06/25 19:45:14;;;;;;;15.52;6.90;;;26.20;99.90;;;25.00;100.00;99366.47;5028314;28;20226;-76
2022/06/25 19:48:03;;;;;;;15.88;5.07;;;26.10;99.90;;;24.68;100.00;99376.66;5029074;28;20210;-76
2022/06/25 19:50:51;;;;;;;8.30;3.47;;;25.90;99.90;;;24.36;100.00;99394.97;5024066;28;20207;-76
2022/06/25 19:53:41;;;;;;;19.40;6.03;;;25.60;99.90;;;24.58;100.00;99414.25;5021786;28;20202;-76
2022/06/25 19:56:32;;;;;;;14.40;5.95;;;25.60;99.90;;;24.36;100.00;99422.88;5015693;28;20210;-76
2022/06/25 19:59:20;;;;;;;10.98;3.58;;;25.40;99.90;;;24.09;100.00;99444.34;5009902;28;20213;-75
2022/06/25 20:02:08;;;;;;;15.45;5.00;;;25.20;99.90;;;24.23;100.00;99474.06;5026928;28;20210;-76
2022/06/25 20:04:56;;;;;;;11.27;3.80;;;25.10;99.90;;;24.18;100.00;99499.63;5026588;28;20306;-76
2022/06/25 20:07:45;;;;;;;10.57;3.00;;;25.00;99.90;;;24.11;100.00;99509.09;5013123;28;20233;-75
2022/06/25 20:10:33;;;;;;;9.63;3.10;;;24.80;99.90;;;24.07;100.00;99523.75;5028651;28;20198;-76
2022/06/25 20:13:22;;;;;;;10.23;4.38;;;24.60;99.90;;;24.05;100.00;99521.13;5025824;28;20203;-75
2022/06/25 20:16:10;;;;;;;14.43;3.97;;;24.60;99.90;;;23.84;100.00;99481.94;5013480;28;20203;-76
2022/06/25 20:18:58;;;;;;;7.43;2.95;;;24.50;99.90;;;23.96;100.00;99505.50;5029963;28;20238;-76
2022/06/25 20:21:47;;;;;;;9.05;2.67;;;24.40;99.90;;;23.91;100.00;99491.38;5014227;28;20195;-76
2022/06/25 20:24:35;;;;;;;8.20;2.58;;;24.20;99.90;;;23.75;100.00;99513.03;5023622;28;20233;-75
2022/06/25 20:27:23;;;;;;;11.20;4.00;;;24.10;99.90;;;23.82;100.00;99551.34;5006096;28;20207;-76
2022/06/25 20:30:12;;;;;;;13.07;4.63;;;24.10;99.90;;;23.64;100.00;99531.72;5025412;28;20207;-76
2022/06/25 20:33:00;;;;;;;10.52;4.03;;;24.00;99.90;;;23.41;100.00;99553.72;5003172;28;20206;-75
2022/06/25 20:35:57;;;;;;;15.88;4.38;;;23.90;99.90;;;23.17;100.00;99581.13;5015784;28;20223;-75
2022/06/25 20:38:46;;;;;;;16.45;4.65;;;23.80;99.90;;;23.20;100.00;99601.66;5027195;28;20261;-75
2022/06/25 20:41:35;;;;;;;6.03;4.15;;;23.60;99.90;;;22.85;100.00;99584.72;5028417;28;20213;-75
2022/06/25 20:44:23;;;;;;;17.02;5.38;;;23.60;99.90;;;22.81;100.00;99596.63;5022373;28;20241;-76
2022/06/25 20:47:13;;;;;;;12.35;4.15;;;23.40;99.90;;;22.73;100.00;99605.09;4995707;28;20195;-76
2022/06/25 20:50:11;;;;;;;7.28;3.00;;;23.30;99.90;;;22.61;100.00;99625.50;5024559;28;20215;-75
2022/06/25 20:53:00;;;;;;;11.75;5.80;;;23.20;99.90;;;22.58;100.00;99640.97;5016690;28;20194;-75
2022/06/25 20:55:50;;;;;;;18.98;9.95;;;23.00;99.90;;;22.43;100.00;99645.34;5020966;28;20237;-75
2022/06/25 20:58:49;;;;;;;15.50;10.77;;;22.80;99.90;;;22.28;100.00;99641.63;5026845;28;20226;-75
2022/06/25 21:01:38;;;;;;;22.63;10.20;;;22.70;99.90;;;22.34;100.00;99659.28;5012113;28;20204;-76
2022/06/25 21:10:43;;;;;;;21.05;10.25;;;22.40;99.90;;;21.70;100.00;99705.50;5025698;28;20214;-76
2022/06/25 21:13:32;;;;;;;29.90;12.40;;;22.30;99.90;;;21.93;100.00;99744.75;5025509;28;20788;-76
2022/06/25 21:16:21;;;;;;;16.10;7.97;;;22.20;99.90;;;21.44;100.00;99738.16;5021770;28;20211;-76
2022/06/25 21:19:09;;;;;;;15.02;7.85;;;22.00;99.90;;;21.43;100.00;99757.91;5026278;28;20234;-76
2022/06/25 21:21:59;;;;;;;20.23;9.13;;;21.80;99.90;;;21.20;100.00;99753.56;5020380;28;20203;-75
2022/06/25 21:24:50;;;;;;;14.10;7.93;;;21.60;99.90;;;21.15;100.00;99767.22;5028864;28;20238;-75
2022/06/25 21:27:48;;;;;;;11.27;6.60;;;21.50;99.90;;;21.37;100.00;99794.91;5014378;28;20211;-75
2022/06/25 21:30:40;;;;;;;9.48;4.65;;;21.40;99.90;;;21.37;100.00;99794.03;5027437;28;20223;-75
2022/06/25 21:33:28;;;;;;;17.92;4.97;;;21.50;99.90;;;21.31;100.00;99808.63;5025571;28;20199;-75
2022/06/25 21:36:17;;;;;;;11.93;4.03;;;21.50;99.90;;;21.19;100.00;99809.16;5019025;28;20818;-75
2022/06/25 21:39:06;;;;;;;10.75;4.13;;;21.40;99.90;;;21.21;100.00;99815.34;5029287;28;20227;-75
2022/06/25 21:41:55;;;;;;;10.15;4.10;;;21.30;99.90;;;21.45;100.00;99807.13;5032763;28;20211;-75
2022/06/25 21:44:44;;;;;;;15.30;5.20;;;21.40;99.90;;;21.48;100.00;99813.25;5029804;28;20226;-75
2022/06/25 21:47:33;;;;;;;11.07;5.45;;;21.40;99.90;;;21.00;100.00;99827.03;5027198;28;20207;-75
2022/06/25 21:50:22;;;;;;;9.52;7.03;;;21.40;99.90;;;20.68;100.00;99826.56;5031287;28;20211;-75
